Azua, Dominican Republic
Current Conditions -  °F | °C
As of 3:00 PM on Thursday 18 Dec 2014 (Local Time) from MDBH Reporting Station
Few Clouds Few Clouds  
Wind Chill: 86°   Ceiling: Unl
Heat Index: 89°   Visibility: 6mi
Dew Point: 68°   Wind: 12mph
Humidity: 55%   Direction: 130°SE
Pressure: 29.97"   Gusts: NA
Location:  18.46°N, 70.74°W
Report Text: MDBH 181900Z 13010KT 9999 FEW024 30/20 Q1015 NOSIG
Loading
Personal Weather Stations






























Interactive Weather Map New forecast layout! Learn more

10-Day Weather Forecast

Advertisements
Track Severe Weather on mobile